sensor_id;sensor_type;location;lat;lon;timestamp;P1;durP1;ratioP1;P2;durP2;ratioP2
76712;SDS011;65640;43.154;25.658;2022-12-18T00:00:43;4.97;;;4.57;;
76712;SDS011;65640;43.154;25.658;2022-12-18T00:03:09;5.93;;;4.63;;
76712;SDS011;65640;43.154;25.658;2022-12-18T00:05:35;4.45;;;4.05;;
76712;SDS011;65640;43.154;25.658;2022-12-18T00:08:01;6.60;;;4.78;;
76712;SDS011;65640;43.154;25.658;2022-12-18T00:10:27;5.00;;;4.50;;
76712;SDS011;65640;43.154;25.658;2022-12-18T00:12:53;6.95;;;4.90;;
76712;SDS011;65640;43.154;25.658;2022-12-18T00:15:18;7.90;;;4.97;;
76712;SDS011;65640;43.154;25.658;2022-12-18T00:17:44;5.68;;;4.68;;
76712;SDS011;65640;43.154;25.658;2022-12-18T00:20:10;5.65;;;4.75;;
76712;SDS011;65640;43.154;25.658;2022-12-18T00:22:35;6.35;;;4.80;;
76712;SDS011;65640;43.154;25.658;2022-12-18T00:25:01;8.20;;;6.20;;
76712;SDS011;65640;43.154;25.658;2022-12-18T00:27:27;7.28;;;6.60;;
76712;SDS011;65640;43.154;25.658;2022-12-18T00:29:52;9.18;;;7.25;;
76712;SDS011;65640;43.154;25.658;2022-12-18T00:32:17;8.95;;;6.82;;
76712;SDS011;65640;43.154;25.658;2022-12-18T00:34:43;6.55;;;5.90;;
76712;SDS011;65640;43.154;25.658;2022-12-18T00:37:08;8.38;;;6.47;;
76712;SDS011;65640;43.154;25.658;2022-12-18T00:39:34;8.07;;;6.03;;
76712;SDS011;65640;43.154;25.658;2022-12-18T00:41:59;7.82;;;6.10;;
76712;SDS011;65640;43.154;25.658;2022-12-18T00:44:43;6.32;;;5.75;;
76712;SDS011;65640;43.154;25.658;2022-12-18T00:47:09;7.05;;;4.97;;
76712;SDS011;65640;43.154;25.658;2022-12-18T00:49:34;7.38;;;5.65;;
76712;SDS011;65640;43.154;25.658;2022-12-18T00:51:59;6.65;;;5.80;;
76712;SDS011;65640;43.154;25.658;2022-12-18T00:54:25;7.13;;;6.43;;
76712;SDS011;65640;43.154;25.658;2022-12-18T00:56:50;5.75;;;5.22;;
76712;SDS011;65640;43.154;25.658;2022-12-18T00:59:17;6.85;;;5.63;;
76712;SDS011;65640;43.154;25.658;2022-12-18T01:01:43;6.85;;;5.47;;
76712;SDS011;65640;43.154;25.658;2022-12-18T01:04:09;6.30;;;5.55;;
76712;SDS011;65640;43.154;25.658;2022-12-18T01:06:35;7.25;;;5.53;;
76712;SDS011;65640;43.154;25.658;2022-12-18T01:09:00;6.13;;;5.32;;
76712;SDS011;65640;43.154;25.658;2022-12-18T01:11:26;6.00;;;5.10;;
76712;SDS011;65640;43.154;25.658;2022-12-18T01:13:52;6.75;;;5.53;;
76712;SDS011;65640;43.154;25.658;2022-12-18T01:16:18;5.68;;;5.18;;
76712;SDS011;65640;43.154;25.658;2022-12-18T01:18:44;6.43;;;5.65;;
76712;SDS011;65640;43.154;25.658;2022-12-18T01:21:11;7.65;;;4.95;;
76712;SDS011;65640;43.154;25.658;2022-12-18T01:23:39;6.00;;;5.20;;
76712;SDS011;65640;43.154;25.658;2022-12-18T01:26:08;6.15;;;5.55;;
76712;SDS011;65640;43.154;25.658;2022-12-18T01:28:35;9.05;;;5.85;;
76712;SDS011;65640;43.154;25.658;2022-12-18T01:31:15;11.15;;;7.78;;
76712;SDS011;65640;43.154;25.658;2022-12-18T01:33:48;14.02;;;8.65;;
76712;SDS011;65640;43.154;25.658;2022-12-18T01:36:19;13.23;;;8.82;;
76712;SDS011;65640;43.154;25.658;2022-12-18T01:38:46;14.60;;;9.02;;
76712;SDS011;65640;43.154;25.658;2022-12-18T01:41:12;11.10;;;8.82;;
76712;SDS011;65640;43.154;25.658;2022-12-18T01:43:46;13.98;;;9.27;;
76712;SDS011;65640;43.154;25.658;2022-12-18T01:46:12;15.65;;;9.48;;
76712;SDS011;65640;43.154;25.658;2022-12-18T01:48:39;12.82;;;8.55;;
76712;SDS011;65640;43.154;25.658;2022-12-18T01:51:06;13.23;;;8.48;;
76712;SDS011;65640;43.154;25.658;2022-12-18T01:53:34;13.20;;;9.68;;
76712;SDS011;65640;43.154;25.658;2022-12-18T01:56:00;9.93;;;8.10;;
76712;SDS011;65640;43.154;25.658;2022-12-18T01:58:38;10.65;;;8.45;;
76712;SDS011;65640;43.154;25.658;2022-12-18T02:01:09;12.55;;;8.48;;
76712;SDS011;65640;43.154;25.658;2022-12-18T02:03:35;10.57;;;8.63;;
76712;SDS011;65640;43.154;25.658;2022-12-18T02:08:58;10.70;;;8.38;;
76712;SDS011;65640;43.154;25.658;2022-12-18T02:22:00;9.65;;;7.38;;
76712;SDS011;65640;43.154;25.658;2022-12-18T02:24:41;12.20;;;7.60;;
76712;SDS011;65640;43.154;25.658;2022-12-18T02:27:18;8.05;;;6.55;;
76712;SDS011;65640;43.154;25.658;2022-12-18T02:29:46;7.13;;;6.28;;
76712;SDS011;65640;43.154;25.658;2022-12-18T02:32:18;7.18;;;5.88;;
76712;SDS011;65640;43.154;25.658;2022-12-18T02:34:49;9.85;;;6.78;;
76712;SDS011;65640;43.154;25.658;2022-12-18T02:37:16;7.90;;;6.63;;
76712;SDS011;65640;43.154;25.658;2022-12-18T02:39:44;8.40;;;7.20;;
76712;SDS011;65640;43.154;25.658;2022-12-18T02:42:13;10.63;;;8.23;;
76712;SDS011;65640;43.154;25.658;2022-12-18T02:44:43;10.45;;;6.40;;
76712;SDS011;65640;43.154;25.658;2022-12-18T02:47:13;11.30;;;8.07;;
76712;SDS011;65640;43.154;25.658;2022-12-18T02:50:16;8.55;;;6.32;;
76712;SDS011;65640;43.154;25.658;2022-12-18T02:57:52;11.32;;;7.15;;
76712;SDS011;65640;43.154;25.658;2022-12-18T03:00:24;9.80;;;6.90;;
76712;SDS011;65640;43.154;25.658;2022-12-18T03:03:19;13.85;;;7.90;;
76712;SDS011;65640;43.154;25.658;2022-12-18T03:08:56;12.90;;;8.68;;
76712;SDS011;65640;43.154;25.658;2022-12-18T03:11:24;10.80;;;7.28;;
76712;SDS011;65640;43.154;25.658;2022-12-18T03:14:11;9.23;;;7.35;;
76712;SDS011;65640;43.154;25.658;2022-12-18T03:16:41;10.05;;;7.13;;
76712;SDS011;65640;43.154;25.658;2022-12-18T03:19:09;10.60;;;7.63;;
76712;SDS011;65640;43.154;25.658;2022-12-18T03:21:43;11.13;;;7.25;;
76712;SDS011;65640;43.154;25.658;2022-12-18T03:24:11;9.90;;;7.70;;
76712;SDS011;65640;43.154;25.658;2022-12-18T03:26:41;11.25;;;7.78;;
76712;SDS011;65640;43.154;25.658;2022-12-18T03:29:12;13.10;;;7.85;;
76712;SDS011;65640;43.154;25.658;2022-12-18T03:31:42;11.20;;;8.50;;
76712;SDS011;65640;43.154;25.658;2022-12-18T03:34:15;11.60;;;7.28;;
76712;SDS011;65640;43.154;25.658;2022-12-18T03:36:46;10.27;;;7.55;;
76712;SDS011;65640;43.154;25.658;2022-12-18T03:39:12;10.23;;;7.18;;
76712;SDS011;65640;43.154;25.658;2022-12-18T03:41:41;8.57;;;6.97;;
76712;SDS011;65640;43.154;25.658;2022-12-18T03:52:31;10.95;;;7.45;;
76712;SDS011;65640;43.154;25.658;2022-12-18T03:55:01;9.88;;;8.07;;
76712;SDS011;65640;43.154;25.658;2022-12-18T03:57:31;10.80;;;7.70;;
76712;SDS011;65640;43.154;25.658;2022-12-18T04:00:03;13.77;;;8.55;;
76712;SDS011;65640;43.154;25.658;2022-12-18T04:02:32;15.20;;;10.60;;
76712;SDS011;65640;43.154;25.658;2022-12-18T04:04:59;14.25;;;8.63;;
76712;SDS011;65640;43.154;25.658;2022-12-18T04:07:28;14.13;;;9.50;;
76712;SDS011;65640;43.154;25.658;2022-12-18T04:09:54;13.00;;;8.13;;
76712;SDS011;65640;43.154;25.658;2022-12-18T04:12:24;12.45;;;8.68;;
76712;SDS011;65640;43.154;25.658;2022-12-18T04:14:51;13.88;;;8.50;;
76712;SDS011;65640;43.154;25.658;2022-12-18T04:17:16;11.00;;;8.02;;
76712;SDS011;65640;43.154;25.658;2022-12-18T04:19:42;11.65;;;8.43;;
76712;SDS011;65640;43.154;25.658;2022-12-18T04:22:08;15.50;;;8.32;;
76712;SDS011;65640;43.154;25.658;2022-12-18T04:24:35;12.50;;;8.40;;
76712;SDS011;65640;43.154;25.658;2022-12-18T04:27:01;10.85;;;8.45;;
76712;SDS011;65640;43.154;25.658;2022-12-18T04:29:26;14.35;;;8.90;;
76712;SDS011;65640;43.154;25.658;2022-12-18T04:31:52;11.00;;;7.40;;
76712;SDS011;65640;43.154;25.658;2022-12-18T04:34:17;10.80;;;7.95;;
76712;SDS011;65640;43.154;25.658;2022-12-18T04:36:42;11.45;;;8.30;;
76712;SDS011;65640;43.154;25.658;2022-12-18T04:39:08;11.82;;;8.50;;
76712;SDS011;65640;43.154;25.658;2022-12-18T04:41:33;12.85;;;8.38;;
76712;SDS011;65640;43.154;25.658;2022-12-18T04:43:59;11.05;;;8.65;;
76712;SDS011;65640;43.154;25.658;2022-12-18T04:46:24;15.27;;;9.80;;
76712;SDS011;65640;43.154;25.658;2022-12-18T04:48:50;10.95;;;7.95;;
76712;SDS011;65640;43.154;25.658;2022-12-18T04:51:15;14.25;;;8.77;;
76712;SDS011;65640;43.154;25.658;2022-12-18T04:53:40;10.77;;;7.63;;
76712;SDS011;65640;43.154;25.658;2022-12-18T04:56:07;14.95;;;7.93;;
76712;SDS011;65640;43.154;25.658;2022-12-18T04:58:37;11.65;;;7.50;;
76712;SDS011;65640;43.154;25.658;2022-12-18T05:01:04;12.63;;;8.25;;
76712;SDS011;65640;43.154;25.658;2022-12-18T05:03:29;12.77;;;8.55;;
76712;SDS011;65640;43.154;25.658;2022-12-18T05:05:55;14.73;;;9.10;;
76712;SDS011;65640;43.154;25.658;2022-12-18T05:08:21;13.45;;;8.35;;
76712;SDS011;65640;43.154;25.658;2022-12-18T05:10:46;13.52;;;8.85;;
76712;SDS011;65640;43.154;25.658;2022-12-18T05:13:12;14.45;;;9.10;;
76712;SDS011;65640;43.154;25.658;2022-12-18T05:15:37;11.52;;;8.18;;
76712;SDS011;65640;43.154;25.658;2022-12-18T05:18:03;12.05;;;8.55;;
76712;SDS011;65640;43.154;25.658;2022-12-18T05:20:29;12.73;;;8.88;;
76712;SDS011;65640;43.154;25.658;2022-12-18T05:22:54;16.13;;;9.32;;
76712;SDS011;65640;43.154;25.658;2022-12-18T05:25:21;11.43;;;9.10;;
76712;SDS011;65640;43.154;25.658;2022-12-18T05:27:47;14.20;;;8.98;;
76712;SDS011;65640;43.154;25.658;2022-12-18T05:30:12;12.07;;;7.93;;
76712;SDS011;65640;43.154;25.658;2022-12-18T05:32:38;14.00;;;9.77;;
76712;SDS011;65640;43.154;25.658;2022-12-18T05:35:05;12.90;;;8.93;;
76712;SDS011;65640;43.154;25.658;2022-12-18T05:37:32;12.13;;;8.88;;
76712;SDS011;65640;43.154;25.658;2022-12-18T05:39:57;11.88;;;8.82;;
76712;SDS011;65640;43.154;25.658;2022-12-18T05:42:23;15.55;;;9.40;;
76712;SDS011;65640;43.154;25.658;2022-12-18T05:44:48;12.80;;;9.07;;
76712;SDS011;65640;43.154;25.658;2022-12-18T05:47:13;17.25;;;11.52;;
76712;SDS011;65640;43.154;25.658;2022-12-18T05:49:39;20.30;;;14.30;;
76712;SDS011;65640;43.154;25.658;2022-12-18T05:52:04;20.85;;;12.45;;
76712;SDS011;65640;43.154;25.658;2022-12-18T05:54:30;16.08;;;10.27;;
76712;SDS011;65640;43.154;25.658;2022-12-18T05:56:56;15.65;;;8.90;;
76712;SDS011;65640;43.154;25.658;2022-12-18T05:59:22;13.30;;;9.35;;
76712;SDS011;65640;43.154;25.658;2022-12-18T06:01:47;15.77;;;9.43;;
76712;SDS011;65640;43.154;25.658;2022-12-18T06:04:13;12.45;;;8.50;;
76712;SDS011;65640;43.154;25.658;2022-12-18T06:06:38;15.00;;;9.18;;
76712;SDS011;65640;43.154;25.658;2022-12-18T06:09:03;13.70;;;9.40;;
76712;SDS011;65640;43.154;25.658;2022-12-18T06:11:34;12.75;;;9.35;;
76712;SDS011;65640;43.154;25.658;2022-12-18T06:14:02;14.30;;;9.68;;
76712;SDS011;65640;43.154;25.658;2022-12-18T06:16:29;14.48;;;9.48;;
76712;SDS011;65640;43.154;25.658;2022-12-18T06:19:01;18.23;;;10.23;;
76712;SDS011;65640;43.154;25.658;2022-12-18T06:21:28;12.93;;;9.38;;
76712;SDS011;65640;43.154;25.658;2022-12-18T06:23:54;16.85;;;10.93;;
76712;SDS011;65640;43.154;25.658;2022-12-18T06:26:20;15.07;;;9.13;;
76712;SDS011;65640;43.154;25.658;2022-12-18T06:28:46;13.05;;;9.32;;
76712;SDS011;65640;43.154;25.658;2022-12-18T06:31:11;18.15;;;12.27;;
76712;SDS011;65640;43.154;25.658;2022-12-18T06:33:37;18.80;;;12.15;;
76712;SDS011;65640;43.154;25.658;2022-12-18T06:36:04;15.00;;;10.57;;
76712;SDS011;65640;43.154;25.658;2022-12-18T06:38:32;31.60;;;18.77;;
76712;SDS011;65640;43.154;25.658;2022-12-18T06:40:58;38.63;;;21.23;;
76712;SDS011;65640;43.154;25.658;2022-12-18T06:43:24;22.02;;;12.82;;
76712;SDS011;65640;43.154;25.658;2022-12-18T06:45:49;21.42;;;10.68;;
76712;SDS011;65640;43.154;25.658;2022-12-18T06:48:20;19.40;;;10.77;;
76712;SDS011;65640;43.154;25.658;2022-12-18T06:50:46;15.10;;;10.65;;
76712;SDS011;65640;43.154;25.658;2022-12-18T06:53:12;15.52;;;10.48;;
76712;SDS011;65640;43.154;25.658;2022-12-18T06:55:37;22.02;;;11.55;;
76712;SDS011;65640;43.154;25.658;2022-12-18T06:58:02;25.17;;;13.43;;
76712;SDS011;65640;43.154;25.658;2022-12-18T07:00:28;22.80;;;12.98;;
76712;SDS011;65640;43.154;25.658;2022-12-18T07:02:54;24.33;;;13.52;;
76712;SDS011;65640;43.154;25.658;2022-12-18T07:05:20;20.42;;;12.57;;
76712;SDS011;65640;43.154;25.658;2022-12-18T07:07:46;19.90;;;10.82;;
76712;SDS011;65640;43.154;25.658;2022-12-18T07:10:11;26.88;;;15.30;;
76712;SDS011;65640;43.154;25.658;2022-12-18T07:12:36;17.17;;;11.15;;
76712;SDS011;65640;43.154;25.658;2022-12-18T07:15:02;20.10;;;12.00;;
76712;SDS011;65640;43.154;25.658;2022-12-18T07:17:28;16.95;;;10.35;;
76712;SDS011;65640;43.154;25.658;2022-12-18T07:19:54;13.05;;;9.15;;
76712;SDS011;65640;43.154;25.658;2022-12-18T07:22:20;15.32;;;9.23;;
76712;SDS011;65640;43.154;25.658;2022-12-18T07:24:45;13.32;;;9.73;;
76712;SDS011;65640;43.154;25.658;2022-12-18T07:27:11;16.80;;;9.85;;
76712;SDS011;65640;43.154;25.658;2022-12-18T07:29:36;13.70;;;9.77;;
76712;SDS011;65640;43.154;25.658;2022-12-18T07:32:01;15.20;;;9.98;;
76712;SDS011;65640;43.154;25.658;2022-12-18T07:34:27;17.58;;;10.52;;
76712;SDS011;65640;43.154;25.658;2022-12-18T07:36:52;20.85;;;12.02;;
76712;SDS011;65640;43.154;25.658;2022-12-18T07:39:18;19.45;;;12.13;;
76712;SDS011;65640;43.154;25.658;2022-12-18T07:41:43;19.70;;;11.35;;
76712;SDS011;65640;43.154;25.658;2022-12-18T07:44:28;17.25;;;12.20;;
76712;SDS011;65640;43.154;25.658;2022-12-18T07:46:54;16.70;;;11.55;;
76712;SDS011;65640;43.154;25.658;2022-12-18T07:49:19;21.38;;;12.20;;
76712;SDS011;65640;43.154;25.658;2022-12-18T07:51:44;19.65;;;12.32;;
76712;SDS011;65640;43.154;25.658;2022-12-18T07:54:14;21.95;;;11.98;;
76712;SDS011;65640;43.154;25.658;2022-12-18T07:56:39;20.63;;;12.40;;
76712;SDS011;65640;43.154;25.658;2022-12-18T07:59:04;20.48;;;13.02;;
76712;SDS011;65640;43.154;25.658;2022-12-18T08:01:30;24.33;;;11.68;;
76712;SDS011;65640;43.154;25.658;2022-12-18T08:03:56;19.80;;;11.52;;
76712;SDS011;65640;43.154;25.658;2022-12-18T08:06:22;17.88;;;11.35;;
76712;SDS011;65640;43.154;25.658;2022-12-18T08:08:48;21.35;;;13.30;;
76712;SDS011;65640;43.154;25.658;2022-12-18T08:11:13;20.67;;;12.50;;
76712;SDS011;65640;43.154;25.658;2022-12-18T08:13:39;25.95;;;15.90;;
76712;SDS011;65640;43.154;25.658;2022-12-18T08:16:05;24.30;;;14.60;;
76712;SDS011;65640;43.154;25.658;2022-12-18T08:18:32;25.17;;;14.38;;
76712;SDS011;65640;43.154;25.658;2022-12-18T08:21:07;22.88;;;14.73;;
76712;SDS011;65640;43.154;25.658;2022-12-18T08:23:36;27.85;;;17.60;;
76712;SDS011;65640;43.154;25.658;2022-12-18T08:26:02;21.40;;;13.27;;
76712;SDS011;65640;43.154;25.658;2022-12-18T08:28:27;20.08;;;12.48;;
76712;SDS011;65640;43.154;25.658;2022-12-18T08:30:53;22.38;;;12.65;;
76712;SDS011;65640;43.154;25.658;2022-12-18T08:33:18;20.30;;;12.18;;
76712;SDS011;65640;43.154;25.658;2022-12-18T08:35:44;24.23;;;14.38;;
76712;SDS011;65640;43.154;25.658;2022-12-18T08:38:09;31.75;;;18.60;;
76712;SDS011;65640;43.154;25.658;2022-12-18T08:40:35;30.67;;;16.48;;
76712;SDS011;65640;43.154;25.658;2022-12-18T08:43:00;34.67;;;18.98;;
76712;SDS011;65640;43.154;25.658;2022-12-18T08:45:44;29.67;;;16.60;;
76712;SDS011;65640;43.154;25.658;2022-12-18T08:48:09;24.73;;;14.07;;
76712;SDS011;65640;43.154;25.658;2022-12-18T08:50:34;28.80;;;16.85;;
76712;SDS011;65640;43.154;25.658;2022-12-18T08:53:00;21.40;;;12.93;;
76712;SDS011;65640;43.154;25.658;2022-12-18T08:55:26;20.27;;;12.15;;
76712;SDS011;65640;43.154;25.658;2022-12-18T08:57:51;19.27;;;12.63;;
76712;SDS011;65640;43.154;25.658;2022-12-18T09:00:17;21.25;;;13.95;;
76712;SDS011;65640;43.154;25.658;2022-12-18T09:02:42;19.52;;;12.35;;
76712;SDS011;65640;43.154;25.658;2022-12-18T09:05:08;14.55;;;9.35;;
76712;SDS011;65640;43.154;25.658;2022-12-18T09:07:33;25.80;;;15.82;;
76712;SDS011;65640;43.154;25.658;2022-12-18T09:09:59;22.40;;;12.13;;
76712;SDS011;65640;43.154;25.658;2022-12-18T09:12:25;17.83;;;9.70;;
76712;SDS011;65640;43.154;25.658;2022-12-18T09:14:50;20.55;;;12.05;;
76712;SDS011;65640;43.154;25.658;2022-12-18T09:17:16;18.73;;;11.77;;
76712;SDS011;65640;43.154;25.658;2022-12-18T09:19:41;15.23;;;10.40;;
76712;SDS011;65640;43.154;25.658;2022-12-18T09:22:07;18.88;;;11.45;;
76712;SDS011;65640;43.154;25.658;2022-12-18T09:24:32;15.30;;;11.13;;
76712;SDS011;65640;43.154;25.658;2022-12-18T09:26:58;17.88;;;10.77;;
76712;SDS011;65640;43.154;25.658;2022-12-18T09:29:23;17.40;;;10.70;;
76712;SDS011;65640;43.154;25.658;2022-12-18T09:31:49;20.90;;;10.88;;
76712;SDS011;65640;43.154;25.658;2022-12-18T09:34:15;21.42;;;11.43;;
76712;SDS011;65640;43.154;25.658;2022-12-18T09:36:41;20.20;;;12.13;;
76712;SDS011;65640;43.154;25.658;2022-12-18T09:39:07;15.82;;;10.07;;
76712;SDS011;65640;43.154;25.658;2022-12-18T09:50:20;12.15;;;8.35;;
76712;SDS011;65640;43.154;25.658;2022-12-18T09:52:53;11.38;;;8.02;;
76712;SDS011;65640;43.154;25.658;2022-12-18T09:55:28;10.18;;;7.38;;
76712;SDS011;65640;43.154;25.658;2022-12-18T09:58:00;13.95;;;8.10;;
76712;SDS011;65640;43.154;25.658;2022-12-18T10:00:32;14.25;;;10.20;;
76712;SDS011;65640;43.154;25.658;2022-12-18T10:03:01;12.98;;;8.27;;
76712;SDS011;65640;43.154;25.658;2022-12-18T10:08:19;14.45;;;8.23;;
76712;SDS011;65640;43.154;25.658;2022-12-18T10:10:53;11.48;;;8.32;;
76712;SDS011;65640;43.154;25.658;2022-12-18T10:16:13;14.18;;;8.73;;
76712;SDS011;65640;43.154;25.658;2022-12-18T10:19:28;13.95;;;8.18;;
76712;SDS011;65640;43.154;25.658;2022-12-18T10:24:40;11.35;;;7.88;;
76712;SDS011;65640;43.154;25.658;2022-12-18T10:27:14;12.05;;;8.82;;
76712;SDS011;65640;43.154;25.658;2022-12-18T10:29:42;12.40;;;8.45;;
76712;SDS011;65640;43.154;25.658;2022-12-18T10:32:13;12.38;;;8.40;;
76712;SDS011;65640;43.154;25.658;2022-12-18T10:34:48;11.15;;;7.90;;
76712;SDS011;65640;43.154;25.658;2022-12-18T10:37:19;14.57;;;9.05;;
76712;SDS011;65640;43.154;25.658;2022-12-18T10:40:07;11.48;;;8.27;;
76712;SDS011;65640;43.154;25.658;2022-12-18T10:42:36;11.93;;;8.68;;
76712;SDS011;65640;43.154;25.658;2022-12-18T10:45:09;16.73;;;10.23;;
76712;SDS011;65640;43.154;25.658;2022-12-18T10:50:01;11.25;;;8.48;;
76712;SDS011;65640;43.154;25.658;2022-12-18T10:52:27;9.13;;;7.03;;
76712;SDS011;65640;43.154;25.658;2022-12-18T10:54:59;13.90;;;9.13;;
76712;SDS011;65640;43.154;25.658;2022-12-18T10:57:38;11.95;;;8.55;;
76712;SDS011;65640;43.154;25.658;2022-12-18T11:03:07;12.85;;;9.18;;
76712;SDS011;65640;43.154;25.658;2022-12-18T11:08:30;15.20;;;9.85;;
76712;SDS011;65640;43.154;25.658;2022-12-18T11:10:56;12.90;;;10.38;;
76712;SDS011;65640;43.154;25.658;2022-12-18T11:13:22;15.05;;;10.60;;
76712;SDS011;65640;43.154;25.658;2022-12-18T11:15:50;16.17;;;9.98;;
76712;SDS011;65640;43.154;25.658;2022-12-18T11:18:16;13.93;;;7.80;;
76712;SDS011;65640;43.154;25.658;2022-12-18T11:20:50;10.20;;;7.88;;
76712;SDS011;65640;43.154;25.658;2022-12-18T11:23:17;11.18;;;7.30;;
76712;SDS011;65640;43.154;25.658;2022-12-18T11:25:52;11.13;;;8.13;;
76712;SDS011;65640;43.154;25.658;2022-12-18T11:28:37;9.73;;;6.90;;
76712;SDS011;65640;43.154;25.658;2022-12-18T11:33:44;13.10;;;8.52;;
76712;SDS011;65640;43.154;25.658;2022-12-18T11:36:15;11.70;;;8.23;;
76712;SDS011;65640;43.154;25.658;2022-12-18T11:38:42;14.15;;;9.48;;
76712;SDS011;65640;43.154;25.658;2022-12-18T11:43:41;13.88;;;9.13;;
76712;SDS011;65640;43.154;25.658;2022-12-18T11:46:34;11.40;;;8.13;;
76712;SDS011;65640;43.154;25.658;2022-12-18T11:49:34;13.23;;;8.88;;
76712;SDS011;65640;43.154;25.658;2022-12-18T11:52:03;17.33;;;11.93;;
76712;SDS011;65640;43.154;25.658;2022-12-18T11:54:34;20.80;;;15.23;;
76712;SDS011;65640;43.154;25.658;2022-12-18T11:57:10;17.00;;;11.30;;
76712;SDS011;65640;43.154;25.658;2022-12-18T12:05:21;14.32;;;9.43;;
76712;SDS011;65640;43.154;25.658;2022-12-18T12:08:01;16.42;;;9.38;;
76712;SDS011;65640;43.154;25.658;2022-12-18T12:13:29;14.57;;;8.55;;
76712;SDS011;65640;43.154;25.658;2022-12-18T12:18:32;18.42;;;10.57;;
76712;SDS011;65640;43.154;25.658;2022-12-18T12:21:04;14.52;;;9.48;;
76712;SDS011;65640;43.154;25.658;2022-12-18T12:34:17;16.63;;;11.38;;
76712;SDS011;65640;43.154;25.658;2022-12-18T12:36:58;17.45;;;10.57;;
76712;SDS011;65640;43.154;25.658;2022-12-18T12:39:38;14.60;;;9.18;;
76712;SDS011;65640;43.154;25.658;2022-12-18T12:42:10;16.23;;;10.45;;
76712;SDS011;65640;43.154;25.658;2022-12-18T12:45:21;16.95;;;10.75;;
76712;SDS011;65640;43.154;25.658;2022-12-18T12:47:55;14.82;;;9.65;;
76712;SDS011;65640;43.154;25.658;2022-12-18T12:50:23;18.63;;;10.43;;
76712;SDS011;65640;43.154;25.658;2022-12-18T12:52:52;17.55;;;12.32;;
76712;SDS011;65640;43.154;25.658;2022-12-18T12:55:23;13.57;;;9.18;;
76712;SDS011;65640;43.154;25.658;2022-12-18T13:00:31;17.00;;;10.63;;
76712;SDS011;65640;43.154;25.658;2022-12-18T13:03:08;20.55;;;10.18;;
76712;SDS011;65640;43.154;25.658;2022-12-18T13:05:52;20.58;;;10.68;;
76712;SDS011;65640;43.154;25.658;2022-12-18T13:08:26;19.50;;;10.43;;
76712;SDS011;65640;43.154;25.658;2022-12-18T13:10:56;14.75;;;9.13;;
76712;SDS011;65640;43.154;25.658;2022-12-18T13:13:50;16.38;;;10.55;;
76712;SDS011;65640;43.154;25.658;2022-12-18T13:16:18;18.65;;;10.95;;
76712;SDS011;65640;43.154;25.658;2022-12-18T13:18:49;18.65;;;10.15;;
76712;SDS011;65640;43.154;25.658;2022-12-18T13:21:20;18.77;;;10.73;;
76712;SDS011;65640;43.154;25.658;2022-12-18T13:23:50;17.67;;;10.70;;
76712;SDS011;65640;43.154;25.658;2022-12-18T13:33:43;16.08;;;10.20;;
76712;SDS011;65640;43.154;25.658;2022-12-18T13:38:39;19.90;;;11.25;;
76712;SDS011;65640;43.154;25.658;2022-12-18T13:43:44;18.33;;;11.73;;
76712;SDS011;65640;43.154;25.658;2022-12-18T13:48:50;15.95;;;10.02;;
76712;SDS011;65640;43.154;25.658;2022-12-18T13:51:19;18.23;;;11.65;;
76712;SDS011;65640;43.154;25.658;2022-12-18T13:53:49;25.30;;;13.50;;
76712;SDS011;65640;43.154;25.658;2022-12-18T13:56:24;16.95;;;10.20;;
76712;SDS011;65640;43.154;25.658;2022-12-18T13:59:10;18.67;;;10.65;;
76712;SDS011;65640;43.154;25.658;2022-12-18T14:01:41;15.25;;;9.18;;
76712;SDS011;65640;43.154;25.658;2022-12-18T14:04:20;21.27;;;12.27;;
76712;SDS011;65640;43.154;25.658;2022-12-18T14:06:50;20.90;;;10.25;;
76712;SDS011;65640;43.154;25.658;2022-12-18T14:09:20;16.20;;;10.77;;
76712;SDS011;65640;43.154;25.658;2022-12-18T14:11:50;18.27;;;10.60;;
76712;SDS011;65640;43.154;25.658;2022-12-18T14:14:16;20.30;;;10.40;;
76712;SDS011;65640;43.154;25.658;2022-12-18T14:16:43;19.77;;;10.93;;
76712;SDS011;65640;43.154;25.658;2022-12-18T14:19:14;18.60;;;11.38;;
76712;SDS011;65640;43.154;25.658;2022-12-18T14:21:45;19.73;;;10.13;;
76712;SDS011;65640;43.154;25.658;2022-12-18T14:24:13;20.80;;;11.10;;
76712;SDS011;65640;43.154;25.658;2022-12-18T14:26:44;16.55;;;10.25;;
76712;SDS011;65640;43.154;25.658;2022-12-18T14:29:29;17.33;;;9.63;;
76712;SDS011;65640;43.154;25.658;2022-12-18T14:32:11;19.80;;;10.68;;
76712;SDS011;65640;43.154;25.658;2022-12-18T14:37:09;27.38;;;14.85;;
76712;SDS011;65640;43.154;25.658;2022-12-18T14:39:36;21.42;;;12.77;;
76712;SDS011;65640;43.154;25.658;2022-12-18T14:42:01;21.25;;;11.80;;
76712;SDS011;65640;43.154;25.658;2022-12-18T14:44:27;21.38;;;11.52;;
76712;SDS011;65640;43.154;25.658;2022-12-18T14:46:52;20.02;;;10.88;;
76712;SDS011;65640;43.154;25.658;2022-12-18T14:49:23;22.23;;;12.10;;
76712;SDS011;65640;43.154;25.658;2022-12-18T14:52:04;18.10;;;11.07;;
76712;SDS011;65640;43.154;25.658;2022-12-18T14:54:38;20.33;;;10.80;;
76712;SDS011;65640;43.154;25.658;2022-12-18T14:57:06;18.95;;;10.82;;
76712;SDS011;65640;43.154;25.658;2022-12-18T14:59:50;34.88;;;16.23;;
76712;SDS011;65640;43.154;25.658;2022-12-18T15:02:25;29.52;;;15.10;;
76712;SDS011;65640;43.154;25.658;2022-12-18T15:05:14;48.95;;;21.95;;
76712;SDS011;65640;43.154;25.658;2022-12-18T15:07:46;22.45;;;12.50;;
76712;SDS011;65640;43.154;25.658;2022-12-18T15:10:15;22.88;;;12.25;;
76712;SDS011;65640;43.154;25.658;2022-12-18T15:20:30;23.98;;;12.82;;
76712;SDS011;65640;43.154;25.658;2022-12-18T15:22:56;25.40;;;12.88;;
76712;SDS011;65640;43.154;25.658;2022-12-18T15:25:32;22.05;;;13.93;;
76712;SDS011;65640;43.154;25.658;2022-12-18T15:28:03;29.40;;;15.80;;
76712;SDS011;65640;43.154;25.658;2022-12-18T15:30:29;28.38;;;15.48;;
76712;SDS011;65640;43.154;25.658;2022-12-18T15:35:57;20.38;;;11.32;;
76712;SDS011;65640;43.154;25.658;2022-12-18T15:38:24;19.95;;;12.35;;
76712;SDS011;65640;43.154;25.658;2022-12-18T15:40:50;21.77;;;11.77;;
76712;SDS011;65640;43.154;25.658;2022-12-18T15:43:15;21.80;;;11.77;;
76712;SDS011;65640;43.154;25.658;2022-12-18T15:46:08;18.48;;;11.57;;
76712;SDS011;65640;43.154;25.658;2022-12-18T15:48:41;20.73;;;12.93;;
76712;SDS011;65640;43.154;25.658;2022-12-18T15:54:04;22.35;;;13.13;;
76712;SDS011;65640;43.154;25.658;2022-12-18T15:56:31;21.02;;;12.88;;
76712;SDS011;65640;43.154;25.658;2022-12-18T15:59:16;23.27;;;12.73;;
76712;SDS011;65640;43.154;25.658;2022-12-18T16:01:43;19.83;;;12.38;;
76712;SDS011;65640;43.154;25.658;2022-12-18T16:04:11;21.88;;;12.43;;
76712;SDS011;65640;43.154;25.658;2022-12-18T16:06:38;21.25;;;11.77;;
76712;SDS011;65640;43.154;25.658;2022-12-18T16:09:04;31.90;;;15.60;;
76712;SDS011;65640;43.154;25.658;2022-12-18T16:11:30;75.60;;;28.13;;
76712;SDS011;65640;43.154;25.658;2022-12-18T16:16:48;43.15;;;17.90;;
76712;SDS011;65640;43.154;25.658;2022-12-18T16:19:15;30.02;;;13.93;;
76712;SDS011;65640;43.154;25.658;2022-12-18T16:21:41;31.17;;;15.05;;
76712;SDS011;65640;43.154;25.658;2022-12-18T16:24:25;25.40;;;12.23;;
76712;SDS011;65640;43.154;25.658;2022-12-18T16:26:53;88.15;;;29.45;;
76712;SDS011;65640;43.154;25.658;2022-12-18T16:29:20;95.50;;;32.17;;